sensor_id;sensor_type;location;lat;lon;timestamp;P1;durP1;ratioP1;P2;durP2;ratioP2
9964;SDS011;5023;53.554;9.964;2023-07-30T00:04:30;15.77;;;14.20;;
9964;SDS011;5023;53.554;9.964;2023-07-30T00:09:33;9.68;;;7.72;;
9964;SDS011;5023;53.554;9.964;2023-07-30T00:14:35;9.35;;;8.45;;
9964;SDS011;5023;53.554;9.964;2023-07-30T00:19:37;11.73;;;10.52;;
9964;SDS011;5023;53.554;9.964;2023-07-30T00:24:40;7.07;;;6.35;;
9964;SDS011;5023;53.554;9.964;2023-07-30T00:29:42;6.85;;;6.20;;
9964;SDS011;5023;53.554;9.964;2023-07-30T00:34:44;8.90;;;8.00;;
9964;SDS011;5023;53.554;9.964;2023-07-30T00:39:47;8.90;;;8.00;;
9964;SDS011;5023;53.554;9.964;2023-07-30T00:44:49;8.52;;;6.97;;
9964;SDS011;5023;53.554;9.964;2023-07-30T00:49:51;10.18;;;9.15;;
9964;SDS011;5023;53.554;9.964;2023-07-30T00:54:55;8.73;;;7.90;;
9964;SDS011;5023;53.554;9.964;2023-07-30T00:59:59;11.40;;;10.30;;
9964;SDS011;5023;53.554;9.964;2023-07-30T01:05:04;9.25;;;8.35;;
9964;SDS011;5023;53.554;9.964;2023-07-30T01:10:08;10.30;;;7.82;;
9964;SDS011;5023;53.554;9.964;2023-07-30T01:15:10;9.65;;;8.70;;
9964;SDS011;5023;53.554;9.964;2023-07-30T01:20:14;8.50;;;7.70;;
9964;SDS011;5023;53.554;9.964;2023-07-30T01:25:17;9.15;;;7.53;;
9964;SDS011;5023;53.554;9.964;2023-07-30T01:30:22;9.35;;;8.45;;
9964;SDS011;5023;53.554;9.964;2023-07-30T01:35:28;9.60;;;8.70;;
9964;SDS011;5023;53.554;9.964;2023-07-30T01:40:32;10.18;;;9.10;;
9964;SDS011;5023;53.554;9.964;2023-07-30T01:45:34;8.98;;;8.18;;
9964;SDS011;5023;53.554;9.964;2023-07-30T01:50:36;7.93;;;7.22;;
9964;SDS011;5023;53.554;9.964;2023-07-30T01:55:39;8.60;;;7.63;;
9964;SDS011;5023;53.554;9.964;2023-07-30T02:00:43;8.55;;;7.72;;
9964;SDS011;5023;53.554;9.964;2023-07-30T02:05:47;9.00;;;7.35;;
9964;SDS011;5023;53.554;9.964;2023-07-30T02:10:55;8.52;;;7.72;;
9964;SDS011;5023;53.554;9.964;2023-07-30T02:15:57;11.55;;;10.45;;
9964;SDS011;5023;53.554;9.964;2023-07-30T02:20:59;27.92;;;24.67;;
9964;SDS011;5023;53.554;9.964;2023-07-30T02:26:02;12.20;;;11.10;;
9964;SDS011;5023;53.554;9.964;2023-07-30T02:31:04;11.52;;;10.30;;
9964;SDS011;5023;53.554;9.964;2023-07-30T02:36:06;12.32;;;11.10;;
9964;SDS011;5023;53.554;9.964;2023-07-30T02:41:09;12.75;;;11.48;;
9964;SDS011;5023;53.554;9.964;2023-07-30T02:46:11;15.68;;;14.07;;
9964;SDS011;5023;53.554;9.964;2023-07-30T02:51:13;14.57;;;12.52;;
9964;SDS011;5023;53.554;9.964;2023-07-30T02:56:17;12.02;;;10.73;;
9964;SDS011;5023;53.554;9.964;2023-07-30T03:01:18;15.10;;;13.60;;
9964;SDS011;5023;53.554;9.964;2023-07-30T03:06:20;14.52;;;12.98;;
9964;SDS011;5023;53.554;9.964;2023-07-30T03:11:24;16.23;;;13.52;;
9964;SDS011;5023;53.554;9.964;2023-07-30T03:16:25;13.05;;;11.23;;
9964;SDS011;5023;53.554;9.964;2023-07-30T03:21:27;13.35;;;11.68;;
9964;SDS011;5023;53.554;9.964;2023-07-30T03:26:31;13.02;;;10.52;;
9964;SDS011;5023;53.554;9.964;2023-07-30T03:31:32;14.02;;;12.13;;
9964;SDS011;5023;53.554;9.964;2023-07-30T03:36:34;11.15;;;10.02;;
9964;SDS011;5023;53.554;9.964;2023-07-30T03:41:38;12.27;;;10.38;;
9964;SDS011;5023;53.554;9.964;2023-07-30T03:46:40;12.88;;;10.02;;
9964;SDS011;5023;53.554;9.964;2023-07-30T03:51:41;12.15;;;10.95;;
9964;SDS011;5023;53.554;9.964;2023-07-30T03:56:45;14.00;;;10.20;;
9964;SDS011;5023;53.554;9.964;2023-07-30T04:01:47;9.77;;;8.65;;
9964;SDS011;5023;53.554;9.964;2023-07-30T04:06:49;10.05;;;9.05;;
9964;SDS011;5023;53.554;9.964;2023-07-30T04:11:52;10.93;;;8.90;;
9964;SDS011;5023;53.554;9.964;2023-07-30T04:16:54;12.10;;;9.55;;
9964;SDS011;5023;53.554;9.964;2023-07-30T04:21:56;12.88;;;10.45;;
9964;SDS011;5023;53.554;9.964;2023-07-30T04:27:00;11.07;;;9.88;;
9964;SDS011;5023;53.554;9.964;2023-07-30T04:32:02;10.85;;;9.10;;
9964;SDS011;5023;53.554;9.964;2023-07-30T04:37:05;11.45;;;8.63;;
9964;SDS011;5023;53.554;9.964;2023-07-30T04:42:08;11.90;;;8.43;;
9964;SDS011;5023;53.554;9.964;2023-07-30T04:47:10;9.27;;;7.72;;
9964;SDS011;5023;53.554;9.964;2023-07-30T04:52:12;9.52;;;7.93;;
9964;SDS011;5023;53.554;9.964;2023-07-30T04:57:15;10.32;;;9.07;;
9964;SDS011;5023;53.554;9.964;2023-07-30T05:02:17;11.70;;;8.57;;
9964;SDS011;5023;53.554;9.964;2023-07-30T05:07:19;9.52;;;7.68;;
9964;SDS011;5023;53.554;9.964;2023-07-30T05:12:22;8.48;;;7.55;;
9964;SDS011;5023;53.554;9.964;2023-07-30T05:17:24;9.40;;;7.25;;
9964;SDS011;5023;53.554;9.964;2023-07-30T05:22:26;14.27;;;7.80;;
9964;SDS011;5023;53.554;9.964;2023-07-30T05:27:30;10.15;;;7.97;;
9964;SDS011;5023;53.554;9.964;2023-07-30T05:32:32;12.18;;;8.82;;
9964;SDS011;5023;53.554;9.964;2023-07-30T05:37:34;12.20;;;8.35;;
9964;SDS011;5023;53.554;9.964;2023-07-30T05:42:37;11.50;;;8.32;;
9964;SDS011;5023;53.554;9.964;2023-07-30T05:47:39;17.15;;;12.88;;
9964;SDS011;5023;53.554;9.964;2023-07-30T05:52:41;10.40;;;7.60;;
9964;SDS011;5023;53.554;9.964;2023-07-30T05:57:44;10.15;;;7.63;;
9964;SDS011;5023;53.554;9.964;2023-07-30T06:02:46;8.57;;;7.60;;
9964;SDS011;5023;53.554;9.964;2023-07-30T06:07:48;9.65;;;7.75;;
9964;SDS011;5023;53.554;9.964;2023-07-30T06:12:51;9.60;;;6.93;;
9964;SDS011;5023;53.554;9.964;2023-07-30T06:17:53;12.50;;;7.95;;
9964;SDS011;5023;53.554;9.964;2023-07-30T06:22:55;11.88;;;7.72;;
9964;SDS011;5023;53.554;9.964;2023-07-30T06:27:58;10.15;;;7.63;;
9964;SDS011;5023;53.554;9.964;2023-07-30T06:33:00;11.75;;;7.97;;
9964;SDS011;5023;53.554;9.964;2023-07-30T06:38:02;13.35;;;9.48;;
9964;SDS011;5023;53.554;9.964;2023-07-30T06:43:05;13.35;;;9.27;;
9964;SDS011;5023;53.554;9.964;2023-07-30T06:48:07;15.73;;;10.02;;
9964;SDS011;5023;53.554;9.964;2023-07-30T06:53:09;17.35;;;10.70;;
9964;SDS011;5023;53.554;9.964;2023-07-30T06:58:12;16.45;;;10.95;;
9964;SDS011;5023;53.554;9.964;2023-07-30T07:03:14;15.68;;;10.65;;
9964;SDS011;5023;53.554;9.964;2023-07-30T07:08:16;14.70;;;11.20;;
9964;SDS011;5023;53.554;9.964;2023-07-30T07:13:19;23.20;;;12.40;;
9964;SDS011;5023;53.554;9.964;2023-07-30T07:18:21;17.63;;;11.52;;
9964;SDS011;5023;53.554;9.964;2023-07-30T07:23:23;21.02;;;11.00;;
9964;SDS011;5023;53.554;9.964;2023-07-30T07:28:26;20.42;;;11.40;;
9964;SDS011;5023;53.554;9.964;2023-07-30T07:33:28;16.83;;;10.13;;
9964;SDS011;5023;53.554;9.964;2023-07-30T07:38:31;13.35;;;8.55;;
9964;SDS011;5023;53.554;9.964;2023-07-30T07:43:34;17.73;;;9.65;;
9964;SDS011;5023;53.554;9.964;2023-07-30T07:48:36;15.15;;;9.02;;
9964;SDS011;5023;53.554;9.964;2023-07-30T07:53:38;13.95;;;8.80;;
9964;SDS011;5023;53.554;9.964;2023-07-30T07:58:41;11.27;;;8.38;;
9964;SDS011;5023;53.554;9.964;2023-07-30T08:03:43;13.63;;;9.77;;
9964;SDS011;5023;53.554;9.964;2023-07-30T08:08:45;13.27;;;8.90;;
9964;SDS011;5023;53.554;9.964;2023-07-30T08:13:49;13.73;;;9.43;;
9964;SDS011;5023;53.554;9.964;2023-07-30T08:18:50;15.55;;;9.73;;
9964;SDS011;5023;53.554;9.964;2023-07-30T08:23:52;16.17;;;9.35;;
9964;SDS011;5023;53.554;9.964;2023-07-30T08:28:56;13.75;;;8.35;;
9964;SDS011;5023;53.554;9.964;2023-07-30T08:33:57;16.38;;;6.93;;
9964;SDS011;5023;53.554;9.964;2023-07-30T08:39:00;15.68;;;6.28;;
9964;SDS011;5023;53.554;9.964;2023-07-30T08:44:05;13.00;;;6.40;;
9964;SDS011;5023;53.554;9.964;2023-07-30T08:49:08;11.05;;;5.28;;
9964;SDS011;5023;53.554;9.964;2023-07-30T08:54:09;8.95;;;4.90;;
9964;SDS011;5023;53.554;9.964;2023-07-30T08:59:16;15.27;;;5.78;;
9964;SDS011;5023;53.554;9.964;2023-07-30T09:04:19;8.75;;;4.53;;
9964;SDS011;5023;53.554;9.964;2023-07-30T09:09:23;9.43;;;4.68;;
9964;SDS011;5023;53.554;9.964;2023-07-30T09:14:27;12.75;;;5.00;;
9964;SDS011;5023;53.554;9.964;2023-07-30T09:19:28;11.25;;;5.45;;
9964;SDS011;5023;53.554;9.964;2023-07-30T09:24:35;9.43;;;4.60;;
9964;SDS011;5023;53.554;9.964;2023-07-30T09:29:38;11.18;;;5.03;;
9964;SDS011;5023;53.554;9.964;2023-07-30T09:34:52;11.90;;;5.20;;
9964;SDS011;5023;53.554;9.964;2023-07-30T09:39:54;10.40;;;4.88;;
9964;SDS011;5023;53.554;9.964;2023-07-30T09:45:00;9.25;;;4.72;;
9964;SDS011;5023;53.554;9.964;2023-07-30T09:50:02;8.88;;;4.57;;
9964;SDS011;5023;53.554;9.964;2023-07-30T09:55:05;13.75;;;4.40;;
9964;SDS011;5023;53.554;9.964;2023-07-30T10:00:10;7.63;;;4.07;;
9964;SDS011;5023;53.554;9.964;2023-07-30T10:05:14;6.72;;;3.80;;
9964;SDS011;5023;53.554;9.964;2023-07-30T10:10:17;6.90;;;3.50;;
9964;SDS011;5023;53.554;9.964;2023-07-30T10:15:22;8.57;;;4.40;;
9964;SDS011;5023;53.554;9.964;2023-07-30T10:20:25;11.07;;;4.35;;
9964;SDS011;5023;53.554;9.964;2023-07-30T10:25:30;11.18;;;4.00;;
9964;SDS011;5023;53.554;9.964;2023-07-30T10:30:45;7.60;;;4.07;;
9964;SDS011;5023;53.554;9.964;2023-07-30T10:35:57;10.77;;;4.50;;
9964;SDS011;5023;53.554;9.964;2023-07-30T10:40:59;7.00;;;4.07;;
9964;SDS011;5023;53.554;9.964;2023-07-30T10:46:03;8.80;;;4.00;;
9964;SDS011;5023;53.554;9.964;2023-07-30T10:51:08;9.85;;;4.20;;
9964;SDS011;5023;53.554;9.964;2023-07-30T10:56:11;12.65;;;4.30;;
9964;SDS011;5023;53.554;9.964;2023-07-30T11:01:15;5.80;;;3.60;;
9964;SDS011;5023;53.554;9.964;2023-07-30T11:06:21;6.88;;;3.90;;
9964;SDS011;5023;53.554;9.964;2023-07-30T11:11:23;8.40;;;4.15;;
9964;SDS011;5023;53.554;9.964;2023-07-30T11:16:27;9.73;;;5.45;;
9964;SDS011;5023;53.554;9.964;2023-07-30T11:21:29;8.40;;;3.38;;
9964;SDS011;5023;53.554;9.964;2023-07-30T11:26:31;7.13;;;3.70;;
9964;SDS011;5023;53.554;9.964;2023-07-30T11:31:34;6.25;;;3.20;;
9964;SDS011;5023;53.554;9.964;2023-07-30T11:36:36;5.30;;;2.85;;
9964;SDS011;5023;53.554;9.964;2023-07-30T11:41:38;4.97;;;2.70;;
9964;SDS011;5023;53.554;9.964;2023-07-30T11:46:53;6.90;;;3.53;;
9964;SDS011;5023;53.554;9.964;2023-07-30T11:52:03;6.43;;;3.67;;
9964;SDS011;5023;53.554;9.964;2023-07-30T11:57:06;8.07;;;3.15;;
9964;SDS011;5023;53.554;9.964;2023-07-30T12:02:14;7.97;;;3.10;;
9964;SDS011;5023;53.554;9.964;2023-07-30T12:07:21;5.28;;;3.17;;
9964;SDS011;5023;53.554;9.964;2023-07-30T12:12:24;5.07;;;2.83;;
9964;SDS011;5023;53.554;9.964;2023-07-30T12:17:29;5.30;;;3.00;;
9964;SDS011;5023;53.554;9.964;2023-07-30T12:22:31;7.45;;;3.50;;
9964;SDS011;5023;53.554;9.964;2023-07-30T12:27:34;5.53;;;2.83;;
9964;SDS011;5023;53.554;9.964;2023-07-30T12:32:37;5.07;;;2.95;;
9964;SDS011;5023;53.554;9.964;2023-07-30T12:37:39;6.28;;;3.90;;
9964;SDS011;5023;53.554;9.964;2023-07-30T12:42:41;5.97;;;2.80;;
9964;SDS011;5023;53.554;9.964;2023-07-30T12:47:44;5.20;;;2.60;;
9964;SDS011;5023;53.554;9.964;2023-07-30T12:52:46;4.35;;;2.78;;
9964;SDS011;5023;53.554;9.964;2023-07-30T12:57:48;6.00;;;3.47;;
9964;SDS011;5023;53.554;9.964;2023-07-30T13:02:51;12.02;;;6.22;;
9964;SDS011;5023;53.554;9.964;2023-07-30T13:07:55;6.28;;;3.55;;
9964;SDS011;5023;53.554;9.964;2023-07-30T13:12:57;7.13;;;3.20;;
9964;SDS011;5023;53.554;9.964;2023-07-30T13:18:00;6.07;;;2.58;;
9964;SDS011;5023;53.554;9.964;2023-07-30T13:23:02;4.30;;;2.90;;
9964;SDS011;5023;53.554;9.964;2023-07-30T13:28:04;3.25;;;2.25;;
9964;SDS011;5023;53.554;9.964;2023-07-30T13:33:07;4.20;;;2.72;;
9964;SDS011;5023;53.554;9.964;2023-07-30T13:38:09;5.57;;;2.55;;
9964;SDS011;5023;53.554;9.964;2023-07-30T13:43:11;3.15;;;2.20;;
9964;SDS011;5023;53.554;9.964;2023-07-30T13:48:14;4.25;;;2.30;;
9964;SDS011;5023;53.554;9.964;2023-07-30T13:53:16;6.00;;;2.67;;
9964;SDS011;5023;53.554;9.964;2023-07-30T13:58:18;3.42;;;2.35;;
9964;SDS011;5023;53.554;9.964;2023-07-30T14:03:21;3.83;;;2.83;;
9964;SDS011;5023;53.554;9.964;2023-07-30T14:08:23;3.70;;;2.53;;
9964;SDS011;5023;53.554;9.964;2023-07-30T14:13:25;2.92;;;2.10;;
9964;SDS011;5023;53.554;9.964;2023-07-30T14:18:28;3.83;;;2.95;;
9964;SDS011;5023;53.554;9.964;2023-07-30T14:23:30;4.15;;;2.42;;
9964;SDS011;5023;53.554;9.964;2023-07-30T14:28:32;2.58;;;2.17;;
9964;SDS011;5023;53.554;9.964;2023-07-30T14:33:35;4.47;;;2.40;;
9964;SDS011;5023;53.554;9.964;2023-07-30T14:38:37;4.47;;;3.00;;
9964;SDS011;5023;53.554;9.964;2023-07-30T14:43:39;2.85;;;2.10;;
9964;SDS011;5023;53.554;9.964;2023-07-30T14:48:42;3.85;;;2.90;;
9964;SDS011;5023;53.554;9.964;2023-07-30T14:53:44;5.18;;;3.00;;
9964;SDS011;5023;53.554;9.964;2023-07-30T14:58:46;5.15;;;2.33;;
9964;SDS011;5023;53.554;9.964;2023-07-30T15:03:50;3.28;;;2.10;;
9964;SDS011;5023;53.554;9.964;2023-07-30T15:08:52;6.13;;;2.35;;
9964;SDS011;5023;53.554;9.964;2023-07-30T15:13:54;3.65;;;2.78;;
9964;SDS011;5023;53.554;9.964;2023-07-30T15:18:57;3.95;;;2.83;;
9964;SDS011;5023;53.554;9.964;2023-07-30T15:24:00;3.90;;;2.40;;
9964;SDS011;5023;53.554;9.964;2023-07-30T15:29:02;3.72;;;2.70;;
9964;SDS011;5023;53.554;9.964;2023-07-30T15:34:05;3.58;;;2.55;;
9964;SDS011;5023;53.554;9.964;2023-07-30T15:39:07;5.55;;;3.05;;
9964;SDS011;5023;53.554;9.964;2023-07-30T15:44:09;6.18;;;1.90;;
9964;SDS011;5023;53.554;9.964;2023-07-30T15:49:12;5.43;;;3.03;;
9964;SDS011;5023;53.554;9.964;2023-07-30T15:54:14;5.35;;;3.38;;
9964;SDS011;5023;53.554;9.964;2023-07-30T15:59:16;8.82;;;7.40;;
9964;SDS011;5023;53.554;9.964;2023-07-30T16:04:20;6.85;;;2.70;;
9964;SDS011;5023;53.554;9.964;2023-07-30T16:09:22;4.90;;;2.47;;
9964;SDS011;5023;53.554;9.964;2023-07-30T16:14:24;5.57;;;2.30;;
9964;SDS011;5023;53.554;9.964;2023-07-30T16:19:27;7.40;;;2.65;;
9964;SDS011;5023;53.554;9.964;2023-07-30T16:24:29;6.85;;;2.60;;
9964;SDS011;5023;53.554;9.964;2023-07-30T16:29:31;5.15;;;2.90;;
9964;SDS011;5023;53.554;9.964;2023-07-30T16:34:34;4.75;;;3.05;;
9964;SDS011;5023;53.554;9.964;2023-07-30T16:39:36;9.93;;;7.68;;
9964;SDS011;5023;53.554;9.964;2023-07-30T16:44:38;4.53;;;2.75;;
9964;SDS011;5023;53.554;9.964;2023-07-30T16:49:41;4.80;;;2.60;;
9964;SDS011;5023;53.554;9.964;2023-07-30T16:54:43;3.58;;;2.47;;
9964;SDS011;5023;53.554;9.964;2023-07-30T16:59:45;4.00;;;2.65;;
9964;SDS011;5023;53.554;9.964;2023-07-30T17:04:49;4.68;;;3.30;;
9964;SDS011;5023;53.554;9.964;2023-07-30T17:09:51;4.55;;;3.53;;
9964;SDS011;5023;53.554;9.964;2023-07-30T17:14:53;3.97;;;2.83;;
9964;SDS011;5023;53.554;9.964;2023-07-30T17:19:56;4.13;;;2.88;;
9964;SDS011;5023;53.554;9.964;2023-07-30T17:24:59;5.90;;;4.50;;
9964;SDS011;5023;53.554;9.964;2023-07-30T17:30:01;5.30;;;4.30;;
9964;SDS011;5023;53.554;9.964;2023-07-30T17:35:05;3.45;;;2.10;;
9964;SDS011;5023;53.554;9.964;2023-07-30T17:40:08;3.13;;;2.60;;
9964;SDS011;5023;53.554;9.964;2023-07-30T17:45:11;4.43;;;3.22;;
9964;SDS011;5023;53.554;9.964;2023-07-30T17:50:14;5.78;;;2.50;;
9964;SDS011;5023;53.554;9.964;2023-07-30T17:55:16;5.43;;;2.65;;
9964;SDS011;5023;53.554;9.964;2023-07-30T18:00:18;2.38;;;1.70;;
9964;SDS011;5023;53.554;9.964;2023-07-30T18:05:21;5.35;;;2.50;;
9964;SDS011;5023;53.554;9.964;2023-07-30T18:10:23;5.05;;;3.13;;
9964;SDS011;5023;53.554;9.964;2023-07-30T18:15:25;5.63;;;2.92;;
9964;SDS011;5023;53.554;9.964;2023-07-30T18:20:28;3.10;;;2.50;;
9964;SDS011;5023;53.554;9.964;2023-07-30T18:25:31;6.95;;;2.83;;
9964;SDS011;5023;53.554;9.964;2023-07-30T18:30:33;2.47;;;2.22;;
9964;SDS011;5023;53.554;9.964;2023-07-30T18:35:38;4.05;;;3.15;;
9964;SDS011;5023;53.554;9.964;2023-07-30T18:40:40;5.68;;;4.28;;
9964;SDS011;5023;53.554;9.964;2023-07-30T18:45:42;4.95;;;3.35;;
9964;SDS011;5023;53.554;9.964;2023-07-30T18:50:50;2.92;;;2.22;;
9964;SDS011;5023;53.554;9.964;2023-07-30T18:55:59;2.65;;;2.05;;
9964;SDS011;5023;53.554;9.964;2023-07-30T19:01:19;4.55;;;2.50;;
9964;SDS011;5023;53.554;9.964;2023-07-30T19:06:27;3.50;;;2.30;;
9964;SDS011;5023;53.554;9.964;2023-07-30T19:11:32;4.82;;;2.35;;
9964;SDS011;5023;53.554;9.964;2023-07-30T19:16:39;2.67;;;2.08;;
9964;SDS011;5023;53.554;9.964;2023-07-30T19:21:50;2.50;;;2.30;;
9964;SDS011;5023;53.554;9.964;2023-07-30T19:26:52;3.85;;;2.50;;
9964;SDS011;5023;53.554;9.964;2023-07-30T19:31:54;5.55;;;4.05;;
9964;SDS011;5023;53.554;9.964;2023-07-30T19:36:58;7.53;;;5.22;;
9964;SDS011;5023;53.554;9.964;2023-07-30T19:42:07;3.63;;;2.90;;
9964;SDS011;5023;53.554;9.964;2023-07-30T19:47:15;8.57;;;6.15;;
9964;SDS011;5023;53.554;9.964;2023-07-30T19:52:38;5.05;;;2.30;;
9964;SDS011;5023;53.554;9.964;2023-07-30T19:57:43;3.80;;;2.72;;
9964;SDS011;5023;53.554;9.964;2023-07-30T20:02:45;3.75;;;2.50;;
9964;SDS011;5023;53.554;9.964;2023-07-30T20:07:49;3.13;;;2.80;;
9964;SDS011;5023;53.554;9.964;2023-07-30T20:12:54;4.43;;;2.75;;
9964;SDS011;5023;53.554;9.964;2023-07-30T20:17:57;4.68;;;2.85;;
9964;SDS011;5023;53.554;9.964;2023-07-30T20:23:00;6.88;;;5.50;;
9964;SDS011;5023;53.554;9.964;2023-07-30T20:28:03;4.47;;;4.03;;
9964;SDS011;5023;53.554;9.964;2023-07-30T20:33:06;4.45;;;3.80;;
9964;SDS011;5023;53.554;9.964;2023-07-30T20:38:18;7.82;;;4.53;;
9964;SDS011;5023;53.554;9.964;2023-07-30T20:43:21;3.92;;;3.58;;
9964;SDS011;5023;53.554;9.964;2023-07-30T20:48:25;6.40;;;3.95;;
9964;SDS011;5023;53.554;9.964;2023-07-30T20:53:30;4.30;;;3.40;;
9964;SDS011;5023;53.554;9.964;2023-07-30T20:58:34;6.22;;;4.90;;
9964;SDS011;5023;53.554;9.964;2023-07-30T21:03:36;5.35;;;4.85;;
9964;SDS011;5023;53.554;9.964;2023-07-30T21:08:44;7.07;;;4.50;;
9964;SDS011;5023;53.554;9.964;2023-07-30T21:13:48;3.88;;;2.65;;
9964;SDS011;5023;53.554;9.964;2023-07-30T21:18:52;4.07;;;3.47;;
9964;SDS011;5023;53.554;9.964;2023-07-30T21:23:56;5.05;;;4.10;;
9964;SDS011;5023;53.554;9.964;2023-07-30T21:28:58;5.57;;;4.10;;
9964;SDS011;5023;53.554;9.964;2023-07-30T21:34:03;4.43;;;3.58;;
9964;SDS011;5023;53.554;9.964;2023-07-30T21:39:07;5.07;;;3.92;;
9964;SDS011;5023;53.554;9.964;2023-07-30T21:44:09;6.07;;;3.67;;
9964;SDS011;5023;53.554;9.964;2023-07-30T21:49:11;4.85;;;3.97;;
9964;SDS011;5023;53.554;9.964;2023-07-30T21:54:16;3.90;;;3.38;;
9964;SDS011;5023;53.554;9.964;2023-07-30T21:59:18;7.45;;;3.72;;
9964;SDS011;5023;53.554;9.964;2023-07-30T22:04:20;5.25;;;3.10;;
9964;SDS011;5023;53.554;9.964;2023-07-30T22:09:23;5.30;;;3.30;;
9964;SDS011;5023;53.554;9.964;2023-07-30T22:14:25;4.40;;;3.60;;
9964;SDS011;5023;53.554;9.964;2023-07-30T22:19:27;5.82;;;5.22;;
9964;SDS011;5023;53.554;9.964;2023-07-30T22:24:31;7.65;;;6.82;;
9964;SDS011;5023;53.554;9.964;2023-07-30T22:29:32;5.32;;;3.40;;
9964;SDS011;5023;53.554;9.964;2023-07-30T22:34:34;5.78;;;5.05;;
9964;SDS011;5023;53.554;9.964;2023-07-30T22:39:38;4.45;;;2.60;;
9964;SDS011;5023;53.554;9.964;2023-07-30T22:44:40;5.60;;;3.00;;
9964;SDS011;5023;53.554;9.964;2023-07-30T22:49:42;3.47;;;2.70;;
9964;SDS011;5023;53.554;9.964;2023-07-30T22:54:45;5.13;;;2.78;;
9964;SDS011;5023;53.554;9.964;2023-07-30T22:59:47;3.33;;;2.83;;
9964;SDS011;5023;53.554;9.964;2023-07-30T23:04:49;3.55;;;2.67;;
9964;SDS011;5023;53.554;9.964;2023-07-30T23:09:52;4.93;;;2.83;;
9964;SDS011;5023;53.554;9.964;2023-07-30T23:14:54;5.05;;;2.72;;
9964;SDS011;5023;53.554;9.964;2023-07-30T23:19:56;4.50;;;3.28;;
9964;SDS011;5023;53.554;9.964;2023-07-30T23:24:59;3.92;;;2.95;;
9964;SDS011;5023;53.554;9.964;2023-07-30T23:30:01;6.90;;;2.85;;
9964;SDS011;5023;53.554;9.964;2023-07-30T23:35:03;10.05;;;7.18;;
9964;SDS011;5023;53.554;9.964;2023-07-30T23:40:07;5.28;;;3.10;;
9964;SDS011;5023;53.554;9.964;2023-07-30T23:45:10;6.72;;;4.13;;
9964;SDS011;5023;53.554;9.964;2023-07-30T23:50:12;7.97;;;2.78;;
9964;SDS011;5023;53.554;9.964;2023-07-30T23:55:15;5.45;;;2.95;;
